AIRPORT ID: 9D1

DATE: 2021-12-09 ZULU TIME: 0.55 LOCAL TIME: 18.55


METAR K9D1 090055Z AUTO 16012G18KT 10SM 07/M04 A2949

ALTIMETER: A2949 Q999

DENSITY ALT: 2200 Ft

WIND DIRECT: 160

WIND SPEED: 12 Gust

WIND CONDITIONS:

VISIBILTY: 10SM 9999M

TEMPERATURE: 44 F 7 C

DEW POINT: 25 F -4 C

HUMID: 48%

LCL: 3,000-5,000 feet

RADIO CHECK: 0

ADVISARIES: 1

GREETINGS: 0

CONVERSATIONS: 2